• Join FlightAware (Why Join?)
  • Login
  • US Flag 
02:12PM EDT


 

Airport Tracker/Info


-or-


 

Live Flight TrackerFlight Track Log ✈ AWE3268 ✈ 07-May-2013 ✈ KCMH - KPHL

Flight Track Log - Related Links

Times and Time Zones

All times are in EDT time to prevent confusion due to time zone crossing. See the AWE3268 flight status page for this flight to view local times or setup timezone preferences in your user account.

Time Position Orientation Groundspeed Altitude Reporting Facility
EDT Latitude Longitude Course Direction KTS MPH feet Rate Location/Type
02:00PM 40.0008 -82.8719 92° East 157 181 1,400  Level Indianapolis Center
02:01PM 39.9989 -82.8092 92° East 173 199 3,000 1,560 Climbing Indianapolis Center
02:01PM 39.9994 -82.7894 88° East 178 205 3,500 2,460 Climbing Indianapolis Center
02:02PM 39.9839 -82.6981 102° East 241 277 6,400 2,820 Climbing Indianapolis Center
02:03PM 39.9742 -82.6025 98° East 262 302 9,400 2,460 Climbing Indianapolis Center
02:04PM 39.9647 -82.5025 97° East 273 314 11,500 2,280 Climbing Indianapolis Center
02:05PM 39.9775 -82.3950 81° East 297 342 14,100 2,340 Climbing Indianapolis Center
02:06PM 39.9958 -82.2822 78° East 311 358 16,300 300 Climbing Indianapolis Center
02:07PM 40.0144 -82.1650 78° East 324 373 14,800 2,220 Descending Indianapolis Center
02:08PM 40.0367 -82.0247 78° East 335 386 21,000 3,900 Climbing Indianapolis Center
02:09PM 40.0572 -81.8997 78° East 345 397 22,900 1,800 Climbing Indianapolis Center
02:10PM 40.0778 -81.7717 78° East 353 406 24,700 1,620 Climbing Indianapolis Center
02:11PM 40.0975 -81.6389 79° East 363 418 26,300 1,500 Climbing Indianapolis Center
02:13PM 40.1139 -81.5053 81° East 368 423 27,800 1,260 Climbing Indianapolis Center
02:14PM 40.1261 -81.3686 83° East 372 428 29,000 1,200 Climbing Indianapolis Center
02:14PM 40.1314 -81.3244 81° East 369 425 29,400 1,080 Climbing Cleveland Center
02:15PM 40.1428 -81.1861 84° East 369 425 30,500 780 Climbing Cleveland Center
02:16PM 40.1558 -81.0475 83° East 374 430 31,000 240 Climbing Cleveland Center
02:17PM 40.1667 -80.9092 84° East 379 436 31,000  Level Cleveland Center
02:18PM 40.1775 -80.7733 84° East 379 436 31,000  Level Cleveland Center
02:19PM 40.1900 -80.6319 83° East 389 448 31,000  Level Cleveland Center
02:20PM 40.2025 -80.4906 83° East 389 448 31,000  Level Cleveland Center
02:21PM 40.2128 -80.3492 85° East 389 448 31,000  Level Cleveland Center
02:22PM 40.2228 -80.2106 85° East 384 442 31,000  Level Cleveland Center
02:23PM 40.2308 -80.0719 86° East 384 442 31,000  Level Cleveland Center
02:24PM 40.2425 -79.9383 83° East 384 442 31,000  Level Cleveland Center
02:25PM 40.2522 -79.8078 84° East 374 430 31,000  Level Cleveland Center
02:26PM 40.2617 -79.6717 85° East 369 425 31,000  Level Cleveland Center
02:27PM 40.2731 -79.5381 84° East 369 425 31,000  Level Cleveland Center
02:28PM 40.2800 -79.4047 86° East 369 425 31,000  Level Cleveland Center
02:29PM 40.2867 -79.2575 87° East 369 425 31,000  Level Cleveland Center
02:30PM 40.2975 -79.1242 84° East 369 425 31,000  Level Cleveland Center
02:31PM 40.3061 -78.9850 85° East 369 425 31,000  Level Cleveland Center
02:32PM 40.3147 -78.8514 85° East 369 425 31,000  Level Cleveland Center
02:33PM 40.3167 -78.7153 89° East 369 425 31,000  Level Cleveland Center
02:34PM 40.3142 -78.5792 91° East 369 425 31,000 -240 Level Cleveland Center
02:35PM 40.3139 -78.4456 90° East 364 419 30,600 -1,140 Descending Cleveland Center
02:37PM 40.3161 -78.2222 89° East 372 428 28,000 -1,620 Descending New York Center
02:38PM 40.3142 -78.0858 91° East 377 434 26,300 -1,500 Descending New York Center
02:39PM 40.3119 -77.9522 91° East 367 422 25,000 -660 Descending New York Center
02:40PM 40.3106 -77.8022 91° East 367 422 25,000  Level New York Center
02:41PM 40.3100 -77.6686 90° East 367 422 25,000 -660 Level New York Center
02:42PM 40.2989 -77.5369 96° East 367 422 23,700 -1,320 Descending New York Center
02:43PM 40.2836 -77.4047 99° East 367 422 22,400 -1,320 Descending New York Center
02:44PM 40.2633 -77.2803 102° East 361 415 21,200 -1,260 Descending New York Center
02:45PM 40.2450 -77.1564 101° East 356 410 20,000 -1,200 Descending New York Center
02:46PM 40.2286 -77.0350 100° East 351 404 18,800 -1,020 Descending New York Center
02:47PM 40.2119 -76.9139 100° East 340 391 18,000 -840 Descending New York Center
02:48PM 40.1931 -76.7956 102° East 335 386 17,100 -1,680 Descending New York Center
02:49PM 40.1761 -76.6797 101° East 335 386 14,800 -2,220 Descending New York Center
02:50PM 40.1622 -76.5781 100° East 330 380 12,700 -1,560 Descending New York Center
02:51PM 40.1453 -76.4572 100° East 314 361 11,700 -960 Descending New York Center
02:52PM 40.1311 -76.3636 101° East 302 348 10,900 -900 Descending New York Center
02:53PM 40.1178 -76.2458 98° East 295 339 10,000 -480 Descending New York Center
02:54PM 40.1081 -76.1419 97° East 295 339 10,000  Level New York Center
02:55PM 40.1019 -76.0439 95° East 295 339 10,000  Level New York Center
02:56PM 40.0944 -75.9319 95° East 290 334 10,000 -420 Level New York Center
02:57PM 40.0878 -75.8447 96° East 275 316 9,200 -1,020 Descending New York Center
02:58PM 40.0797 -75.7381 96° East 270 311 8,000 -660 Descending New York Center
02:59PM 40.1258 -75.6844 42° Northeast 208 239 7,900  Descending New York Center
03:00PM 40.1722 -75.6225 46° Northeast 213 245 8,000  Climbing New York Center
03:01PM 40.1875 -75.5531 74° East 208 239 8,000  Level New York Center
03:02PM 40.1992 -75.4669 80° East 214 246 8,000 -60 Level New York Center
03:03PM 40.2000 -75.3961 89° East 220 253 7,900 -720 Descending New York Center
03:04PM 40.1469 -75.4197 199° South 146 168 6,700 -1,020 Descending New York Center
03:05PM 40.1003 -75.4411 199° South 183 211 5,900 -360 Descending New York Center
03:06PM 40.0447 -75.4211 165° South 189 217 6,000  Climbing New York Center
03:07PM 40.0017 -75.4075 166° South 189 217 6,000  Level New York Center
03:08PM 39.9500 -75.3931 168° South 179 206 6,000 -360 Level New York Center
03:09PM 39.9000 -75.5000 239° Southwest 205 236 5,100 -360 Descending Philadelphia TRACON
03:10PM 39.8833 -75.5833 255° West 207 238 5,100 -360 Level Philadelphia TRACON
03:11PM 39.8833 -75.6500 270° West 205 236 4,400 -540 Descending Philadelphia TRACON
03:12PM 39.8333 -75.6667 194° South 160 184 4,100 -480 Descending Philadelphia TRACON
03:13PM 39.8000 -75.6333 142° Southeast 163 188 3,600 -540 Descending Philadelphia TRACON
03:14PM 39.8000 -75.5667 90° East 172 198 3,100 -300 Descending Philadelphia TRACON
03:15PM 39.8167 -75.5167 67° East 172 198 3,100 -60 Level Philadelphia TRACON
03:16PM 39.8167 -75.4667 90° East 169 194 3,000 -600 Descending Philadelphia TRACON
03:17PM 39.8333 -75.4000 72° East 169 194 1,900 -900 Descending Philadelphia TRACON
03:18PM 39.8500 -75.3500 67° East 149 171 1,300 -780 Descending Philadelphia TRACON
03:19PM 39.8500 -75.3000 90° East 127 146 500 -780 Descending Philadelphia TRACON
03:21PM 39.8667 -75.2333 90° East  Level FlightAware Approximate
03:28PM 39.8722 -75.2409 90° East  Level Estimated